Flight Track Log - Related Links

Times and Time Zones

All times are in EDT time to prevent confusion due to time zone crossing. See the TAM3420 flight status page for this flight to view local times or setup timezone preferences in your user account.

Time Position Orientation Groundspeed Altitude Reporting Facility
EDT Latitude Longitude Course Direction KTS MPH feet Rate Location/Type
Fri 01:15:00 PM -1.5380 -49.4286 261° West  Level Estimated
Fri 01:16:00 PM -1.5524 -49.5151 261° West  Level Estimated
Fri 01:17:00 PM -1.5668 -49.6017 261° West  Level Estimated
Fri 01:18:00 PM -1.5812 -49.6883 261° West  Level Estimated
Fri 01:19:00 PM -1.5956 -49.7749 261° West  Level Estimated
Fri 01:20:00 PM -1.6100 -49.8615 261° West  Level Estimated
Fri 01:21:00 PM -1.6244 -49.9480 261° West  Level Estimated
Fri 01:22:00 PM -1.6388 -50.0346 261° West  Level Estimated
Fri 01:23:00 PM -1.6532 -50.1212 261° West  Level Estimated
Fri 01:24:00 PM -1.6675 -50.2078 261° West  Level Estimated
Fri 01:25:00 PM -1.6819 -50.2944 261° West  Level Estimated
Fri 01:26:00 PM -1.6963 -50.3810 261° West  Level Estimated
Fri 01:27:00 PM -1.7107 -50.4676 261° West  Level Estimated
Fri 01:28:00 PM -1.7250 -50.5541 261° West  Level Estimated
Fri 01:29:00 PM -1.7394 -50.6407 261° West  Level Estimated
Fri 01:30:00 PM -1.7537 -50.7273 261° West  Level Estimated
Fri 01:31:00 PM -1.7681 -50.8139 261° West  Level Estimated
Fri 01:32:00 PM -1.7824 -50.9005 261° West  Level Estimated
Fri 01:32:17 PM -1.9010 -51.3460 261° West 461 531 36,100  Level FlightAware ADS-B
Fri 01:33:00 PM -1.7968 -50.9871 261° West  Level Estimated
Fri 01:33:12 PM -1.9130 -51.4580 264° West 461 531 36,100  Level FlightAware ADS-B
Fri 01:33:57 PM -1.9220 -51.5430 264° West 461 531 36,100 -71 Level FlightAware ADS-B
Fri 01:34:37 PM -1.9330 -51.6430 264° West 456 525 36,000 -80 Descending FlightAware ADS-B
Fri 01:35:12 PM -1.9400 -51.7090 264° West 456 525 36,000  Level FlightAware ADS-B
Fri 01:36:12 PM -1.9560 -51.8460 263° West 448 516 36,000  Level FlightAware ADS-B
Fri 01:36:57 PM -1.9640 -51.9260 264° West 448 516 36,000  Level FlightAware ADS-B
Fri 01:37:37 PM -1.9720 -51.9960 263° West 448 516 36,000  Level FlightAware ADS-B
Fri 01:38:17 PM -1.9790 -52.0660 264° West 448 516 36,000  Level FlightAware ADS-B
Fri 01:39:07 PM -1.9880 -52.1540 264° West 448 516 36,000  Level FlightAware ADS-B
Fri 01:39:47 PM -1.9960 -52.2240 263° West 448 516 36,000  Level FlightAware ADS-B
Fri 01:40:27 PM -2.0030 -52.2940 264° West 448 516 36,000  Level FlightAware ADS-B
Fri 01:41:07 PM -2.0100 -52.3640 264° West 448 516 36,000  Level FlightAware ADS-B
Fri 01:41:47 PM -2.0180 -52.4350 264° West 448 516 36,000  Level FlightAware ADS-B
Fri 01:42:37 PM -2.0270 -52.5220 264° West 448 516 36,000  Level FlightAware ADS-B
Fri 01:43:17 PM -2.0340 -52.5920 264° West 448 516 36,000  Level FlightAware ADS-B
Fri 01:43:57 PM -2.0420 -52.6620 263° West 448 516 36,000  Level FlightAware ADS-B
Fri 01:44:37 PM -2.0490 -52.7330 264° West 448 516 36,000  Level FlightAware ADS-B
Fri 01:45:17 PM -2.0560 -52.8030 264° West 448 516 36,000  Level FlightAware ADS-B
Fri 01:46:07 PM -2.0650 -52.8900 264° West 448 516 36,000  Level FlightAware ADS-B
Fri 01:48:00 PM -2.0956 -53.0525 259° West  Level Estimated
Fri 01:49:00 PM -2.1119 -53.1388 259° West  Level Estimated
Fri 01:50:00 PM -2.1281 -53.2250 259° West  Level Estimated
Fri 01:51:00 PM -2.1444 -53.3113 259° West  Level Estimated
Fri 01:52:00 PM -2.1606 -53.3976 259° West  Level Estimated
Fri 01:53:00 PM -2.1768 -53.4839 259° West  Level Estimated
Fri 01:54:00 PM -2.1931 -53.5702 259° West  Level Estimated
Fri 01:55:00 PM -2.2093 -53.6564 259° West  Level Estimated
Fri 01:56:00 PM -2.2255 -53.7427 259° West  Level Estimated
Fri 01:57:00 PM -2.2417 -53.8290 259° West  Level Estimated
Fri 01:58:00 PM -2.2579 -53.9153 259° West  Level Estimated
Fri 01:59:00 PM -2.2741 -54.0016 259° West  Level Estimated
Fri 02:00:00 PM -2.2903 -54.0879 259° West  Level Estimated
Fri 02:01:00 PM -2.3065 -54.1742 259° West  Level Estimated
Fri 02:02:00 PM -2.3227 -54.2605 259° West  Level Estimated
Fri 02:03:00 PM -2.3389 -54.3468 259° West  Level Estimated
Fri 02:04:00 PM -2.3551 -54.4331 259° West  Level Estimated
Fri 02:05:00 PM -2.3712 -54.5194 259° West  Level Estimated
Fri 02:06:00 PM -2.3874 -54.6057 259° West  Level Estimated
Fri 02:07:00 PM -2.4036 -54.6920 259° West  Level Estimated
Fri 02:08:00 PM -2.4197 -54.7784 259° West  Level Estimated
Fri 02:09:00 PM -2.4224 -54.7928 259° West  Level Estimated
Fri 02:10:00 PM -2.4224 -54.7928 135° Southeast  Level Estimated
Fri 02:11:00 PM -2.4224 -54.7928 135° Southeast  Level Estimated
Fri 02:12:00 PM -2.4224 -54.7928 135° Southeast  Level Estimated
Fri 02:13:00 PM -2.4224 -54.7928 135° Southeast  Level Estimated
Fri 02:14:00 PM -2.4224 -54.7928 135° Southeast  Level Estimated
Fri 02:15:00 PM -2.4224 -54.7928 135° Southeast  Level Estimated
Fri 02:16:00 PM -2.4224 -54.7928 135° Southeast  Level Estimated
Fri 02:17:00 PM -2.4224 -54.7928 135° Southeast  Level Estimated
Fri 02:18:00 PM -2.4224 -54.7928 135° Southeast  Level Estimated
Fri 02:19:00 PM -2.4224 -54.7928 135° Southeast  Level Estimated
Fri 02:20:00 PM -2.4224 -54.7928 135° Southeast  Level Estimated
Fri 02:21:00 PM -2.4224 -54.7928 135° Southeast  Level Estimated
Fri 02:22:00 PM -2.4224 -54.7928 135° Southeast  Level Estimated
Fri 02:23:00 PM -2.4224 -54.7928 135° Southeast  Level Estimated
Fri 02:24:00 PM -2.4224 -54.7928 135° Southeast  Level Estimated
Fri 02:25:00 PM -2.4224 -54.7928 135° Southeast  Level Estimated
Fri 02:26:00 PM -2.4224 -54.7928 135° Southeast  Level Estimated
Fri 02:27:00 PM -2.4224 -54.7928 135° Southeast  Level Estimated
Fri 02:28:00 PM -2.4224 -54.7928 135° Southeast  Level Estimated
Fri 02:29:00 PM -2.4224 -54.7928 135° Southeast  Level Estimated
Fri 02:30:00 PM -2.4224 -54.7928 135° Southeast  Level Estimated
Fri 02:31:00 PM -2.4224 -54.7928 135° Southeast  Level Estimated
Fri 02:32:00 PM -2.4224 -54.7928 135° Southeast  Level Estimated
Fri 02:33:00 PM -2.4224 -54.7928 135° Southeast  Level Estimated

Login

Don't have an account? Register now (free) for customized features, flight alerts, and more!